Time;durP1;ratioP1;P1;durP2;ratioP2;P2;SDS_P1;SDS_P2;PMS_P1;PMS_P2;Temp;Humidity;BMP_temperature;BMP_pressure;BME280_temperature;BME280_humidity;BME280_pressure;Samples;Min_cycle;Max_cycle;Signal;HPM_P1;HPM_P2
2023/09/19 00:01:12;;;;;;;2.70;2.30;;;14.90;99.90;;;;;;4947701;28;20482;-57
2023/09/19 00:03:38;;;;;;;4.03;2.53;;;14.90;99.90;;;;;;4948042;28;20524;-58
2023/09/19 00:06:04;;;;;;;14.83;2.70;;;14.90;99.90;;;;;;4964999;28;20465;-58
2023/09/19 00:08:31;;;;;;;3.60;2.50;;;14.90;99.90;;;;;;4951238;28;20469;-57
2023/09/19 00:11:03;;;;;;;6.27;2.90;;;14.90;99.90;;;;;;4955285;28;20439;-58
2023/09/19 00:13:30;;;;;;;4.20;3.10;;;14.90;99.90;;;;;;4951692;28;20468;-57
2023/09/19 00:15:58;;;;;;;3.50;2.97;;;14.90;99.90;;;;;;4953765;28;20445;-58
2023/09/19 00:18:28;;;;;;;6.60;2.90;;;14.90;99.90;;;;;;4956282;28;20436;-57
2023/09/19 00:20:57;;;;;;;5.80;2.83;;;14.90;99.90;;;;;;4954243;28;20430;-58
2023/09/19 00:23:24;;;;;;;5.00;2.80;;;14.90;99.90;;;;;;4953946;28;20461;-58
2023/09/19 00:25:51;;;;;;;3.73;2.87;;;14.90;99.90;;;;;;4940713;28;20455;-58
2023/09/19 00:28:18;;;;;;;5.00;2.30;;;14.90;99.90;;;;;;4951552;28;20465;-58
2023/09/19 00:30:44;;;;;;;3.40;2.63;;;14.90;99.90;;;;;;4951436;28;21383;-58
2023/09/19 00:33:15;;;;;;;3.30;2.63;;;14.90;99.90;;;;;;4954853;28;20473;-58
2023/09/19 00:35:50;;;;;;;3.30;2.50;;;15.00;99.90;;;;;;4952563;28;20417;-59
2023/09/19 00:38:17;;;;;;;6.47;2.90;;;15.00;99.90;;;;;;4951997;28;20444;-57
2023/09/19 00:40:46;;;;;;;6.07;2.40;;;15.00;99.90;;;;;;4949943;28;20448;-58
2023/09/19 00:43:12;;;;;;;2.57;2.37;;;15.10;99.90;;;;;;4951666;28;20540;-58
2023/09/19 00:45:38;;;;;;;6.07;2.57;;;15.10;99.90;;;;;;4955898;28;20487;-58
2023/09/19 00:48:06;;;;;;;4.07;2.20;;;15.10;99.90;;;;;;4951838;28;20213;-57
2023/09/19 00:50:32;;;;;;;6.73;2.40;;;15.10;99.90;;;;;;4951348;28;20841;-58
2023/09/19 00:52:58;;;;;;;3.17;2.17;;;15.10;99.90;;;;;;4952273;28;20460;-57
2023/09/19 00:55:25;;;;;;;6.30;2.40;;;15.10;99.90;;;;;;4954337;28;20469;-58
2023/09/19 00:57:52;;;;;;;2.50;2.30;;;15.10;99.90;;;;;;4949309;28;20444;-58
2023/09/19 01:00:19;;;;;;;7.00;2.83;;;15.10;99.90;;;;;;4952186;28;20483;-57
2023/09/19 01:02:46;;;;;;;4.83;3.13;;;15.10;99.90;;;;;;4953092;28;21540;-58
2023/09/19 01:05:12;;;;;;;5.53;2.47;;;15.00;99.90;;;;;;4949273;28;20464;-58
2023/09/19 01:07:41;;;;;;;7.00;2.73;;;15.10;99.90;;;;;;4950820;28;20512;-58
2023/09/19 01:10:10;;;;;;;3.63;2.50;;;15.00;99.90;;;;;;4951149;28;20452;-57
2023/09/19 01:12:45;;;;;;;3.30;2.60;;;15.00;99.90;;;;;;4952039;28;20445;-57
2023/09/19 01:15:21;;;;;;;5.30;2.87;;;15.00;99.90;;;;;;4954134;28;20997;-57
2023/09/19 01:17:52;;;;;;;11.63;2.70;;;15.00;99.90;;;;;;4953283;28;20464;-57
2023/09/19 01:21:03;;;;;;;7.87;2.77;;;15.00;99.90;;;;;;4968645;28;20528;-57
2023/09/19 01:24:07;;;;;;;9.73;2.30;;;15.00;99.90;;;;;;4983993;28;20460;-57
2023/09/19 01:27:10;;;;;;;3.43;2.27;;;15.10;99.90;;;;;;4931336;28;20976;-57
2023/09/19 01:29:44;;;;;;;3.43;2.00;;;15.10;99.90;;;;;;4968427;28;20464;-57
2023/09/19 01:32:14;;;;;;;4.37;2.30;;;15.10;99.90;;;;;;4969661;28;20487;-57
2023/09/19 01:34:47;;;;;;;7.00;2.20;;;15.10;99.90;;;;;;4967505;28;20425;-57
2023/09/19 01:37:14;;;;;;;2.70;2.40;;;15.10;99.90;;;;;;4970300;28;20433;-57
2023/09/19 01:39:40;;;;;;;4.83;2.10;;;15.10;99.90;;;;;;4968819;28;20429;-57
2023/09/19 01:42:19;;;;;;;4.80;2.10;;;15.10;99.90;;;;;;4959970;28;20541;-58
2023/09/19 01:44:48;;;;;;;2.40;2.03;;;15.10;99.90;;;;;;4967215;28;20782;-58
2023/09/19 01:47:23;;;;;;;2.97;2.10;;;15.00;99.90;;;;;;4970419;28;20923;-58
2023/09/19 01:50:05;;;;;;;2.90;2.50;;;15.00;99.90;;;;;;4969328;28;20599;-58
2023/09/19 01:52:38;;;;;;;2.90;2.20;;;15.00;99.90;;;;;;4970535;28;20449;-58
2023/09/19 01:55:10;;;;;;;3.30;2.43;;;14.90;99.90;;;;;;4970497;28;20425;-58
2023/09/19 01:57:43;;;;;;;6.43;2.30;;;15.00;99.90;;;;;;4968621;28;20467;-58
2023/09/19 02:00:11;;;;;;;4.30;1.97;;;14.90;99.90;;;;;;4966062;28;20975;-58
2023/09/19 02:02:44;;;;;;;2.27;1.83;;;14.90;99.90;;;;;;4958328;28;20500;-59
2023/09/19 02:05:10;;;;;;;2.47;2.00;;;14.90;99.90;;;;;;4968363;28;20429;-57
2023/09/19 02:07:37;;;;;;;2.50;1.87;;;14.90;99.90;;;;;;4963527;28;20979;-58
2023/09/19 02:10:05;;;;;;;3.43;2.10;;;14.90;99.90;;;;;;4976104;28;20436;-58
2023/09/19 02:12:32;;;;;;;3.40;2.00;;;14.90;99.90;;;;;;4960119;28;20495;-57
2023/09/19 02:14:59;;;;;;;4.30;1.80;;;14.90;99.90;;;;;;4966949;28;20453;-58
2023/09/19 02:17:27;;;;;;;2.20;1.80;;;14.90;99.90;;;;;;4955195;28;20425;-58
2023/09/19 02:19:54;;;;;;;2.40;2.00;;;14.90;99.90;;;;;;4966830;28;20417;-58
2023/09/19 02:22:21;;;;;;;4.03;1.93;;;14.90;99.90;;;;;;4966383;28;20488;-57
2023/09/19 02:24:47;;;;;;;2.33;2.10;;;14.90;99.90;;;;;;4967836;28;20465;-58
2023/09/19 02:27:15;;;;;;;3.23;1.70;;;14.90;99.90;;;;;;4963432;28;20426;-58
2023/09/19 02:29:41;;;;;;;3.13;2.00;;;14.90;99.90;;;;;;4960220;28;20981;-58
2023/09/19 02:32:07;;;;;;;2.13;1.93;;;14.90;99.90;;;;;;4967744;28;20449;-57
2023/09/19 02:34:36;;;;;;;6.40;1.80;;;14.90;99.90;;;;;;4965981;28;20314;-59
2023/09/19 02:37:05;;;;;;;6.03;2.00;;;15.00;99.90;;;;;;4965598;28;20179;-58
2023/09/19 02:39:31;;;;;;;6.87;2.07;;;15.00;99.90;;;;;;4964878;28;20433;-57
2023/09/19 02:41:57;;;;;;;3.20;1.97;;;15.00;99.90;;;;;;4967602;28;20956;-58
2023/09/19 02:44:23;;;;;;;4.10;1.80;;;15.00;99.90;;;;;;4968552;28;20451;-58
2023/09/19 02:46:49;;;;;;;5.07;1.80;;;15.10;99.90;;;;;;4970840;28;20180;-59
2023/09/19 02:49:15;;;;;;;2.00;1.80;;;15.00;99.90;;;;;;4983480;28;20818;-58
2023/09/19 02:51:41;;;;;;;2.77;1.80;;;15.10;99.90;;;;;;4969730;28;20480;-58
2023/09/19 02:54:07;;;;;;;4.63;2.00;;;15.10;99.90;;;;;;4969163;28;20208;-58
2023/09/19 02:56:33;;;;;;;1.57;1.47;;;15.10;99.90;;;;;;4963369;28;20673;-58
2023/09/19 02:59:00;;;;;;;2.70;1.83;;;15.10;99.90;;;;;;4969155;28;20514;-59
2023/09/19 03:01:28;;;;;;;2.60;2.00;;;15.10;99.90;;;;;;4968808;28;20570;-59
2023/09/19 03:03:54;;;;;;;2.27;1.73;;;15.10;99.90;;;;;;4965299;28;20454;-58
2023/09/19 03:06:21;;;;;;;5.37;3.60;;;15.10;99.90;;;;;;4960313;28;20512;-58
2023/09/19 03:08:48;;;;;;;3.90;2.20;;;15.20;99.90;;;;;;4969078;28;20468;-57
2023/09/19 03:11:16;;;;;;;1.80;1.70;;;15.10;99.90;;;;;;4962423;28;20437;-58
2023/09/19 03:13:42;;;;;;;4.60;2.30;;;15.10;99.90;;;;;;4961949;28;21030;-58
2023/09/19 03:16:08;;;;;;;2.23;1.63;;;15.20;99.90;;;;;;4967343;28;20437;-58
2023/09/19 03:18:37;;;;;;;2.90;2.00;;;15.20;99.90;;;;;;4959919;28;21010;-58
2023/09/19 03:21:02;;;;;;;4.10;1.70;;;15.20;99.90;;;;;;4969355;28;20186;-58
2023/09/19 03:23:29;;;;;;;7.80;1.70;;;15.20;99.90;;;;;;4966703;28;20465;-58
2023/09/19 03:25:56;;;;;;;2.90;2.47;;;15.20;99.90;;;;;;4958437;28;20269;-58
2023/09/19 03:28:22;;;;;;;3.63;2.20;;;15.20;99.90;;;;;;4966141;28;20991;-57
2023/09/19 03:31:03;;;;;;;3.83;1.93;;;15.20;99.90;;;;;;4968299;28;20418;-58
2023/09/19 03:33:31;;;;;;;1.93;1.60;;;15.20;99.90;;;;;;4966991;28;20457;-57
2023/09/19 03:35:58;;;;;;;2.83;1.80;;;15.20;99.90;;;;;;4967778;28;20872;-58
2023/09/19 03:38:25;;;;;;;1.90;1.70;;;15.20;99.90;;;;;;4968369;28;20924;-58
2023/09/19 03:40:51;;;;;;;3.93;1.53;;;15.20;99.90;;;;;;4966499;28;20500;-57
2023/09/19 03:43:17;;;;;;;6.20;3.77;;;15.20;99.90;;;;;;4970350;28;20460;-58
2023/09/19 03:45:43;;;;;;;2.07;1.80;;;15.20;99.90;;;;;;4968981;28;20174;-58
2023/09/19 03:48:12;;;;;;;2.60;1.77;;;15.20;99.90;;;;;;4972530;28;20464;-56
2023/09/19 03:50:37;;;;;;;2.40;1.80;;;15.10;99.90;;;;;;4968597;28;20260;-57
2023/09/19 03:53:04;;;;;;;2.03;1.67;;;15.10;99.90;;;;;;4970025;28;20553;-57
2023/09/19 03:55:32;;;;;;;2.03;1.83;;;15.10;99.90;;;;;;4970908;28;20643;-55
2023/09/19 03:57:58;;;;;;;1.50;1.20;;;15.10;99.90;;;;;;4961348;28;20468;-57
2023/09/19 04:00:26;;;;;;;2.30;1.80;;;15.10;99.90;;;;;;4959930;28;20445;-53
2023/09/19 04:02:52;;;;;;;3.90;2.93;;;15.10;99.90;;;;;;4963686;28;20221;-57
2023/09/19 04:05:18;;;;;;;2.73;2.00;;;15.10;99.90;;;;;;4960181;28;20527;-58
2023/09/19 04:07:44;;;;;;;2.87;1.90;;;15.10;99.90;;;;;;4966361;28;20564;-57
2023/09/19 04:10:11;;;;;;;6.13;2.43;;;15.10;99.90;;;;;;4947188;28;21165;-58
2023/09/19 04:12:37;;;;;;;2.90;1.90;;;15.10;99.90;;;;;;4962951;28;20248;-57
2023/09/19 04:15:03;;;;;;;3.97;2.03;;;15.10;99.90;;;;;;4979641;28;20469;-61
2023/09/19 04:17:29;;;;;;;2.20;1.97;;;15.10;99.90;;;;;;4962483;28;20521;-58
2023/09/19 04:19:54;;;;;;;7.80;2.00;;;15.10;99.90;;;;;;4965520;28;20523;-58
2023/09/19 04:22:20;;;;;;;8.00;1.60;;;15.10;99.90;;;;;;4965430;28;20213;-57
2023/09/19 04:24:45;;;;;;;2.27;1.43;;;15.10;99.90;;;;;;4963177;28;20241;-56
2023/09/19 04:27:14;;;;;;;2.30;1.77;;;15.10;99.90;;;;;;4959266;28;20178;-57
2023/09/19 04:29:41;;;;;;;7.10;1.77;;;15.10;99.90;;;;;;4964306;28;20307;-58
2023/09/19 04:32:07;;;;;;;3.10;1.70;;;15.10;99.90;;;;;;4963748;28;21231;-58
2023/09/19 04:34:34;;;;;;;1.83;1.47;;;15.10;99.90;;;;;;4958209;28;20437;-58
2023/09/19 04:37:00;;;;;;;2.40;1.80;;;15.00;99.90;;;;;;4985685;28;20975;-58
2023/09/19 04:39:26;;;;;;;3.10;1.53;;;15.00;99.90;;;;;;4964503;28;20538;-56
2023/09/19 04:41:53;;;;;;;2.50;1.70;;;15.00;99.90;;;;;;4964521;28;20464;-59
2023/09/19 04:44:19;;;;;;;2.17;1.70;;;15.00;99.90;;;;;;4966937;28;20473;-59
2023/09/19 04:46:46;;;;;;;2.40;1.87;;;15.00;99.90;;;;;;4967665;28;20437;-58
2023/09/19 04:49:12;;;;;;;2.80;1.70;;;15.00;99.90;;;;;;4962243;28;20556;-59
2023/09/19 04:51:38;;;;;;;2.43;1.70;;;14.90;99.90;;;;;;4962226;28;20503;-58
2023/09/19 04:54:04;;;;;;;5.60;2.13;;;14.90;99.90;;;;;;4963213;28;20488;-59
2023/09/19 04:56:32;;;;;;;2.30;1.80;;;14.90;99.90;;;;;;4967569;28;20603;-58
2023/09/19 04:59:00;;;;;;;7.83;2.10;;;14.90;99.90;;;;;;4965626;28;20504;-59
2023/09/19 05:01:26;;;;;;;2.80;1.83;;;14.90;99.90;;;;;;4963929;28;21025;-58
2023/09/19 05:03:52;;;;;;;2.17;1.80;;;14.90;99.90;;;;;;4959131;28;20461;-60
2023/09/19 05:06:20;;;;;;;1.63;1.53;;;14.90;99.90;;;;;;4962232;28;20445;-58
2023/09/19 05:08:50;;;;;;;2.33;1.60;;;14.90;99.90;;;;;;4958617;28;20465;-57
2023/09/19 05:11:15;;;;;;;3.80;1.50;;;14.90;99.90;;;;;;4961132;28;21163;-58
2023/09/19 05:13:41;;;;;;;4.03;2.00;;;14.90;99.90;;;;;;4966698;28;20449;-58
2023/09/19 05:16:09;;;;;;;2.30;1.60;;;14.90;99.90;;;;;;4961747;28;20256;-58
2023/09/19 05:18:35;;;;;;;2.60;1.70;;;14.90;99.90;;;;;;4962233;28;20665;-58
2023/09/19 05:21:03;;;;;;;2.70;1.80;;;14.90;99.90;;;;;;4962264;28;20440;-58
2023/09/19 05:23:28;;;;;;;4.27;1.90;;;14.90;99.90;;;;;;4960912;28;20202;-58
2023/09/19 05:25:56;;;;;;;3.67;1.80;;;14.90;99.90;;;;;;4968629;28;20429;-58
2023/09/19 05:28:22;;;;;;;2.13;1.93;;;14.90;99.90;;;;;;4969706;28;20734;-58
2023/09/19 05:30:48;;;;;;;2.70;1.60;;;14.90;99.90;;;;;;4969741;28;20433;-57
2023/09/19 05:33:14;;;;;;;2.83;1.50;;;14.90;99.90;;;;;;4971192;28;20661;-57
2023/09/19 05:35:41;;;;;;;7.00;2.63;;;14.90;99.90;;;;;;4980929;28;20453;-58
2023/09/19 05:38:12;;;;;;;3.53;2.13;;;14.90;99.90;;;;;;4967592;28;20185;-58
2023/09/19 05:40:38;;;;;;;4.13;1.77;;;14.90;99.90;;;;;;4970066;28;20457;-57
2023/09/19 05:43:05;;;;;;;2.10;1.67;;;14.90;99.90;;;;;;4968834;28;20480;-59
2023/09/19 05:45:31;;;;;;;3.50;1.97;;;14.80;99.90;;;;;;4970289;28;20443;-58
2023/09/19 05:48:11;;;;;;;2.13;1.93;;;14.80;99.90;;;;;;4967612;28;20891;-58
2023/09/19 05:50:38;;;;;;;2.60;1.80;;;14.80;99.90;;;;;;4969249;28;20432;-58
2023/09/19 05:53:04;;;;;;;4.80;2.00;;;14.80;99.90;;;;;;4966847;28;20460;-58
2023/09/19 05:55:30;;;;;;;3.30;1.60;;;14.80;99.90;;;;;;4967385;28;20488;-58
2023/09/19 05:57:56;;;;;;;4.60;2.07;;;14.80;99.90;;;;;;4961274;28;20426;-58
2023/09/19 06:00:23;;;;;;;1.53;1.30;;;14.90;99.90;;;;;;4969755;28;20189;-58
2023/09/19 06:02:56;;;;;;;4.57;1.87;;;14.90;99.90;;;;;;4978989;28;20198;-57
2023/09/19 06:05:26;;;;;;;1.77;1.60;;;15.00;99.90;;;;;;4961888;28;20437;-58
2023/09/19 06:07:52;;;;;;;3.37;2.00;;;15.00;99.90;;;;;;4970248;28;20856;-57
2023/09/19 06:10:20;;;;;;;2.30;2.00;;;15.00;99.90;;;;;;4968884;28;20425;-58
2023/09/19 06:12:46;;;;;;;5.83;1.87;;;15.10;99.90;;;;;;4962713;28;20453;-58
2023/09/19 06:15:18;;;;;;;2.30;1.70;;;15.10;99.90;;;;;;4965184;28;20433;-58
2023/09/19 06:17:48;;;;;;;7.07;2.10;;;15.20;99.90;;;;;;4967730;28;20444;-57
2023/09/19 06:20:14;;;;;;;5.27;1.90;;;15.20;99.90;;;;;;4965344;28;20433;-58
2023/09/19 06:22:44;;;;;;;2.53;1.90;;;15.20;99.90;;;;;;4961039;28;20456;-58
2023/09/19 06:25:11;;;;;;;3.00;2.13;;;15.20;99.90;;;;;;4965659;28;20441;-58
2023/09/19 06:27:41;;;;;;;11.97;2.73;;;15.30;99.90;;;;;;4963227;28;21018;-59
2023/09/19 06:30:07;;;;;;;6.40;1.93;;;15.30;99.90;;;;;;4969333;28;20507;-57
2023/09/19 06:32:33;;;;;;;4.40;1.50;;;15.30;99.90;;;;;;4968041;28;20461;-57
2023/09/19 06:34:59;;;;;;;6.27;2.20;;;15.30;99.90;;;;;;4967488;28;20484;-58
2023/09/19 06:37:30;;;;;;;2.63;1.83;;;15.40;99.90;;;;;;4969241;28;20185;-58
2023/09/19 06:39:56;;;;;;;4.47;2.13;;;15.40;99.90;;;;;;4968983;28;20233;-58
2023/09/19 06:42:22;;;;;;;2.17;1.80;;;15.40;99.90;;;;;;4967846;28;20808;-59
2023/09/19 06:44:49;;;;;;;4.83;1.83;;;15.50;99.90;;;;;;4965661;28;20963;-60
2023/09/19 06:47:16;;;;;;;3.60;2.10;;;15.50;99.90;;;;;;4966908;28;20433;-59
2023/09/19 06:49:45;;;;;;;3.60;2.20;;;15.50;99.90;;;;;;4969154;28;20467;-57
2023/09/19 06:52:10;;;;;;;10.07;2.50;;;15.50;99.90;;;;;;4967770;28;20471;-59
2023/09/19 06:54:37;;;;;;;6.73;1.80;;;15.60;99.90;;;;;;4960959;28;20462;-58
2023/09/19 06:57:03;;;;;;;4.77;1.80;;;15.70;99.90;;;;;;4965877;28;20170;-58
2023/09/19 06:59:28;;;;;;;3.43;1.90;;;15.70;99.90;;;;;;4962949;28;20503;-59
2023/09/19 07:01:54;;;;;;;5.17;1.73;;;15.80;99.90;;;;;;4956499;28;20438;-58
2023/09/19 07:04:20;;;;;;;2.33;1.70;;;15.90;99.90;;;;;;4965729;28;20208;-57
2023/09/19 07:06:51;;;;;;;10.00;1.97;;;16.00;99.90;;;;;;4967292;28;20802;-58
2023/09/19 07:09:19;;;;;;;9.53;1.93;;;16.00;99.90;;;;;;4956939;28;20210;-58
2023/09/19 07:11:45;;;;;;;2.20;1.37;;;16.10;99.90;;;;;;4961179;28;20516;-59
2023/09/19 07:14:13;;;;;;;3.17;1.40;;;16.10;99.90;;;;;;4967578;28;20535;-58
2023/09/19 07:16:42;;;;;;;8.43;1.80;;;16.20;99.90;;;;;;4960422;28;20257;-58
2023/09/19 07:19:08;;;;;;;6.57;1.70;;;16.20;99.90;;;;;;4972487;28;20527;-58
2023/09/19 07:21:35;;;;;;;2.33;1.50;;;16.20;99.90;;;;;;4970954;28;20834;-59
2023/09/19 07:24:00;;;;;;;2.40;1.70;;;16.20;99.90;;;;;;4971751;28;20197;-58
2023/09/19 07:26:27;;;;;;;1.37;1.27;;;16.20;99.90;;;;;;4963183;28;20442;-58
2023/09/19 07:28:53;;;;;;;2.30;1.40;;;16.20;99.90;;;;;;4957754;28;20673;-59
2023/09/19 07:31:19;;;;;;;12.83;2.50;;;16.20;99.90;;;;;;4969173;28;20440;-57
2023/09/19 07:33:45;;;;;;;8.30;2.33;;;16.30;99.90;;;;;;4970785;28;20613;-58
2023/09/19 07:36:14;;;;;;;2.40;1.40;;;16.30;99.90;;;;;;4967680;28;20178;-58
2023/09/19 07:38:41;;;;;;;10.57;2.37;;;16.40;99.90;;;;;;4972637;28;20173;-58
2023/09/19 07:41:11;;;;;;;2.63;1.50;;;16.40;99.90;;;;;;4972681;28;21052;-58
2023/09/19 07:43:38;;;;;;;2.70;1.50;;;16.50;99.90;;;;;;4972245;28;20484;-58
2023/09/19 07:46:06;;;;;;;4.33;1.70;;;16.50;99.90;;;;;;4968142;28;20409;-57
2023/09/19 07:48:33;;;;;;;1.80;1.50;;;16.60;99.90;;;;;;4970487;28;20975;-58
2023/09/19 07:51:03;;;;;;;2.00;1.20;;;16.70;99.90;;;;;;4968945;28;20409;-58
2023/09/19 07:53:30;;;;;;;27.20;3.90;;;16.80;99.90;;;;;;4970047;28;20472;-58
2023/09/19 07:56:05;;;;;;;3.23;1.53;;;16.80;99.90;;;;;;4972852;28;20416;-58
2023/09/19 07:58:33;;;;;;;8.53;1.50;;;16.90;99.90;;;;;;4968493;28;20436;-58
2023/09/19 08:01:10;;;;;;;2.90;1.30;;;17.00;99.90;;;;;;4971804;28;21022;-58
2023/09/19 08:03:43;;;;;;;2.10;1.40;;;17.00;99.90;;;;;;4972087;28;20466;-58
2023/09/19 08:06:08;;;;;;;2.77;1.43;;;17.10;99.90;;;;;;4965188;28;20434;-58
2023/09/19 08:08:37;;;;;;;2.17;1.30;;;17.10;99.90;;;;;;4965161;28;20568;-58
2023/09/19 08:11:11;;;;;;;2.20;1.70;;;17.20;99.90;;;;;;4965909;28;20178;-60
2023/09/19 08:13:43;;;;;;;2.93;1.70;;;17.30;99.90;;;;;;4965736;28;20457;-59
2023/09/19 08:16:09;;;;;;;2.00;1.47;;;17.40;99.90;;;;;;4964989;28;20420;-58
2023/09/19 08:18:35;;;;;;;1.87;1.63;;;17.40;99.90;;;;;;4965927;28;20464;-60
2023/09/19 08:21:01;;;;;;;1.40;1.30;;;17.50;99.90;;;;;;4968812;28;20452;-58
2023/09/19 08:23:27;;;;;;;1.67;1.57;;;17.60;99.90;;;;;;4965256;28;20680;-58
2023/09/19 08:25:57;;;;;;;3.63;1.50;;;17.60;99.90;;;;;;4969923;28;20182;-58
2023/09/19 08:28:24;;;;;;;4.30;1.53;;;17.60;99.90;;;;;;4968377;28;20252;-59
2023/09/19 08:30:50;;;;;;;1.43;1.30;;;17.70;99.90;;;;;;4967564;28;21147;-59
2023/09/19 08:33:16;;;;;;;2.63;1.40;;;17.90;99.90;;;;;;4964179;28;20464;-59
2023/09/19 08:35:42;;;;;;;1.50;1.40;;;18.00;99.90;;;;;;4972174;28;20413;-59
2023/09/19 08:38:08;;;;;;;2.70;1.60;;;18.10;99.90;;;;;;4970770;28;20214;-59
2023/09/19 08:40:40;;;;;;;7.90;1.50;;;18.10;99.90;;;;;;4970744;28;20508;-59
2023/09/19 08:43:07;;;;;;;1.63;1.20;;;18.10;99.90;;;;;;4969513;28;21299;-58
2023/09/19 08:45:33;;;;;;;3.50;1.47;;;18.20;99.90;;;;;;4970523;28;20473;-58
2023/09/19 08:48:17;;;;;;;1.30;1.20;;;18.20;99.90;;;;;;4969244;28;20807;-58
2023/09/19 08:50:47;;;;;;;1.50;1.30;;;18.20;99.90;;;;;;4966284;28;20508;-59
2023/09/19 08:53:22;;;;;;;1.83;1.30;;;18.20;99.90;;;;;;4965009;28;20441;-58
2023/09/19 08:55:51;;;;;;;1.80;1.20;;;18.20;99.90;;;;;;4967857;28;20429;-58
2023/09/19 08:58:19;;;;;;;1.17;1.00;;;18.10;99.90;;;;;;4964691;28;20428;-59
2023/09/19 09:00:49;;;;;;;2.20;1.23;;;18.10;99.90;;;;;;4970586;28;20413;-58
2023/09/19 09:03:19;;;;;;;4.40;1.40;;;18.10;99.90;;;;;;4965596;28;20827;-60
2023/09/19 09:05:46;;;;;;;2.17;1.60;;;18.20;99.90;;;;;;4966111;28;20430;-58
2023/09/19 09:08:12;;;;;;;2.77;1.40;;;18.30;99.80;;;;;;4965708;28;20484;-58
2023/09/19 09:10:40;;;;;;;1.57;1.17;;;18.40;99.90;;;;;;4970508;28;20425;-58
2023/09/19 09:13:06;;;;;;;2.97;1.20;;;18.50;99.90;;;;;;4966323;28;20445;-58
2023/09/19 09:15:36;;;;;;;5.80;1.43;;;18.60;96.30;;;;;;4970276;28;20475;-58
2023/09/19 09:18:04;;;;;;;1.33;1.20;;;18.60;95.00;;;;;;4970069;28;20433;-58
2023/09/19 09:20:30;;;;;;;1.30;1.20;;;18.60;93.00;;;;;;4967480;28;20437;-58
2023/09/19 09:23:03;;;;;;;1.83;1.40;;;18.50;91.50;;;;;;4969676;28;20821;-58
2023/09/19 09:25:49;;;;;;;3.73;1.50;;;18.50;92.50;;;;;;4963392;28;20193;-57
2023/09/19 09:28:20;;;;;;;1.60;1.30;;;18.40;92.90;;;;;;4960986;28;20460;-58
2023/09/19 09:30:46;;;;;;;3.03;1.27;;;18.50;90.20;;;;;;4967765;28;20483;-59
2023/09/19 09:33:14;;;;;;;2.53;1.63;;;18.60;84.90;;;;;;4966551;28;20460;-58
2023/09/19 09:36:02;;;;;;;1.47;1.20;;;18.80;84.40;;;;;;4968364;28;20173;-59
2023/09/19 09:38:45;;;;;;;1.80;1.60;;;18.90;81.60;;;;;;4963475;28;20798;-59
2023/09/19 09:41:15;;;;;;;2.20;1.60;;;19.10;79.40;;;;;;4969195;28;20456;-58
2023/09/19 09:43:46;;;;;;;2.80;1.40;;;19.40;86.20;;;;;;4970068;28;20460;-59
2023/09/19 09:51:59;;;;;;;1.80;1.43;;;20.20;69.40;;;;;;4970003;28;20424;-59
2023/09/19 09:54:34;;;;;;;2.90;1.43;;;20.20;66.80;;;;;;4965986;28;21001;-59
2023/09/19 09:57:13;;;;;;;5.10;1.30;;;20.20;65.00;;;;;;4969283;28;20443;-59
2023/09/19 09:59:47;;;;;;;2.33;1.37;;;20.10;62.80;;;;;;4964052;28;20531;-59
2023/09/19 10:02:32;;;;;;;2.63;1.30;;;20.00;63.60;;;;;;4965358;28;20436;-59
2023/09/19 10:05:09;;;;;;;2.20;1.27;;;19.90;66.60;;;;;;4966609;28;21255;-58
2023/09/19 10:07:38;;;;;;;2.20;1.13;;;20.00;69.10;;;;;;4966625;28;20417;-59
2023/09/19 10:10:20;;;;;;;3.47;1.40;;;20.20;69.20;;;;;;4968044;28;20413;-59
2023/09/19 10:12:48;;;;;;;9.60;1.80;;;20.20;67.70;;;;;;4965147;28;20441;-58
2023/09/19 10:15:15;;;;;;;2.67;1.30;;;20.20;69.20;;;;;;4966564;28;20797;-59
2023/09/19 10:17:45;;;;;;;1.97;1.50;;;20.20;72.80;;;;;;4967107;28;20425;-59
2023/09/19 10:20:32;;;;;;;2.50;1.60;;;20.20;69.00;;;;;;4964592;28;20437;-60
2023/09/19 10:23:00;;;;;;;1.47;1.10;;;20.20;65.90;;;;;;4963443;28;20455;-59
2023/09/19 10:25:30;;;;;;;3.00;1.30;;;20.00;65.90;;;;;;4964927;28;20465;-59
2023/09/19 10:28:06;;;;;;;4.27;1.60;;;19.80;65.80;;;;;;4965107;28;21019;-59
2023/09/19 10:30:36;;;;;;;2.03;1.30;;;19.60;65.30;;;;;;4964837;28;20433;-58
2023/09/19 10:33:03;;;;;;;1.83;1.40;;;19.40;67.20;;;;;;4967279;28;20473;-58
2023/09/19 10:35:31;;;;;;;5.60;1.30;;;19.20;68.10;;;;;;4964058;28;20429;-58
2023/09/19 10:38:00;;;;;;;1.23;1.13;;;19.00;71.10;;;;;;4961340;28;20448;-58
2023/09/19 10:40:32;;;;;;;1.73;1.50;;;18.90;74.10;;;;;;4966058;28;20433;-59
2023/09/19 10:43:06;;;;;;;4.80;1.90;;;18.90;71.20;;;;;;4969099;28;20556;-59
2023/09/19 10:45:35;;;;;;;2.00;1.67;;;18.80;69.80;;;;;;4969229;28;20421;-58
2023/09/19 10:48:03;;;;;;;4.30;1.53;;;18.80;71.30;;;;;;4964406;28;20464;-58
2023/09/19 10:50:50;;;;;;;2.20;1.40;;;18.80;71.20;;;;;;4966317;28;20836;-57
2023/09/19 10:53:17;;;;;;;2.03;1.30;;;18.80;71.20;;;;;;4961025;28;20535;-57
2023/09/19 10:56:09;;;;;;;1.83;1.67;;;18.80;69.80;;;;;;4957249;28;20437;-59
2023/09/19 10:58:38;;;;;;;2.57;1.30;;;18.70;69.10;;;;;;4964033;28;21043;-58
2023/09/19 11:01:09;;;;;;;2.87;1.47;;;18.80;73.60;;;;;;4960504;28;20429;-58
2023/09/19 11:03:37;;;;;;;1.57;1.40;;;18.90;72.40;;;;;;4963673;28;20456;-59
2023/09/19 11:06:17;;;;;;;4.97;1.83;;;19.10;70.50;;;;;;4957087;28;20449;-58
2023/09/19 11:11:53;;;;;;;5.80;1.40;;;19.30;70.50;;;;;;4959702;28;20429;-59
2023/09/19 11:14:24;;;;;;;2.13;1.60;;;19.30;68.20;;;;;;4965678;28;20436;-59
2023/09/19 11:17:11;;;;;;;1.87;1.27;;;19.30;69.50;;;;;;4961149;28;20461;-59
2023/09/19 11:23:11;;;;;;;2.07;1.60;;;19.20;65.60;;;;;;4961125;28;20480;-58
2023/09/19 11:25:43;;;;;;;1.93;1.43;;;19.20;65.10;;;;;;4961601;28;20927;-58
2023/09/19 11:28:14;;;;;;;1.43;1.30;;;19.40;65.60;;;;;;4962959;28;20515;-59
2023/09/19 11:30:45;;;;;;;2.77;1.70;;;19.60;64.20;;;;;;4966202;28;20952;-58
2023/09/19 11:33:33;;;;;;;2.97;1.53;;;19.70;63.80;;;;;;4967696;28;20449;-57
2023/09/19 11:36:02;;;;;;;2.83;1.80;;;19.80;63.10;;;;;;4969031;28;20409;-58
2023/09/19 11:38:47;;;;;;;6.63;1.60;;;19.80;61.60;;;;;;4966252;28;20441;-59
2023/09/19 11:41:21;;;;;;;7.57;1.40;;;19.70;63.30;;;;;;4962412;28;20562;-58
2023/09/19 11:43:50;;;;;;;6.00;1.30;;;19.70;62.60;;;;;;4967577;28;20460;-59
2023/09/19 11:46:21;;;;;;;1.77;1.53;;;19.70;61.30;;;;;;4960623;28;21008;-57
2023/09/19 11:48:48;;;;;;;1.67;1.50;;;19.80;62.80;;;;;;4965348;28;20556;-60
2023/09/19 11:51:19;;;;;;;1.87;1.40;;;19.80;62.30;;;;;;4967781;28;21020;-58
2023/09/19 11:53:50;;;;;;;2.73;1.20;;;20.00;64.00;;;;;;4961619;28;20484;-58
2023/09/19 11:56:17;;;;;;;4.30;1.50;;;20.30;62.40;;;;;;4961336;28;20425;-58
2023/09/19 11:58:44;;;;;;;4.47;1.40;;;20.80;63.30;;;;;;4965994;28;20429;-59
2023/09/19 12:01:15;;;;;;;2.10;1.50;;;21.30;61.10;;;;;;4962102;28;20431;-58
2023/09/19 12:03:47;;;;;;;2.03;1.47;;;21.60;58.10;;;;;;4958920;28;21483;-59
2023/09/19 12:06:16;;;;;;;1.77;1.50;;;21.50;56.90;;;;;;4962353;28;20453;-59
2023/09/19 12:08:43;;;;;;;4.70;2.27;;;21.30;56.50;;;;;;4966895;28;21032;-59
2023/09/19 12:11:19;;;;;;;2.63;1.70;;;21.00;56.30;;;;;;4963097;28;20445;-60
2023/09/19 12:13:46;;;;;;;3.23;1.60;;;20.80;57.00;;;;;;4968184;28;20557;-59
2023/09/19 12:16:15;;;;;;;3.27;2.07;;;21.00;56.40;;;;;;4963546;28;20433;-59
2023/09/19 12:18:43;;;;;;;3.70;1.70;;;21.20;54.80;;;;;;4958922;28;20986;-59
2023/09/19 12:21:22;;;;;;;4.07;1.23;;;21.30;54.30;;;;;;4962865;28;20858;-58
2023/09/19 12:24:13;;;;;;;4.73;1.77;;;21.30;54.80;;;;;;4963255;28;20573;-58
2023/09/19 12:26:47;;;;;;;2.20;1.47;;;21.30;54.40;;;;;;4963181;28;20428;-58
2023/09/19 12:29:17;;;;;;;3.97;1.70;;;21.30;54.10;;;;;;4964662;28;20456;-60
2023/09/19 12:31:58;;;;;;;6.33;1.57;;;21.60;53.50;;;;;;4969797;28;20453;-59
2023/09/19 12:34:29;;;;;;;1.83;1.60;;;22.00;53.40;;;;;;4968939;28;20449;-59
2023/09/19 12:37:11;;;;;;;3.03;1.20;;;22.50;51.80;;;;;;4963043;28;20422;-59
2023/09/19 12:39:48;;;;;;;1.33;1.23;;;22.50;51.10;;;;;;4967220;28;20433;-58
2023/09/19 12:42:15;;;;;;;3.47;1.70;;;22.20;50.80;;;;;;4964529;28;20432;-59
2023/09/19 12:44:43;;;;;;;5.33;2.10;;;21.80;50.80;;;;;;4967318;28;20476;-59
2023/09/19 12:47:19;;;;;;;7.50;1.40;;;21.50;52.00;;;;;;4967705;28;20444;-58
2023/09/19 12:50:07;;;;;;;6.13;1.60;;;21.40;52.50;;;;;;4969560;28;20469;-58
2023/09/19 12:52:37;;;;;;;3.30;1.43;;;21.20;52.60;;;;;;4962325;28;20549;-59
2023/09/19 12:55:04;;;;;;;1.87;1.50;;;21.40;53.00;;;;;;4969085;28;20429;-59
2023/09/19 12:57:34;;;;;;;11.80;1.37;;;21.50;52.40;;;;;;4968289;28;20429;-60
2023/09/19 13:00:05;;;;;;;1.97;1.30;;;21.30;52.40;;;;;;4968075;28;20517;-58
2023/09/19 13:02:32;;;;;;;4.17;1.57;;;21.30;52.30;;;;;;4967966;28;20461;-58
2023/09/19 13:05:04;;;;;;;2.47;1.30;;;21.20;51.60;;;;;;4969300;28;20429;-58
2023/09/19 13:07:46;;;;;;;2.50;1.23;;;21.00;51.50;;;;;;4968277;28;20465;-58
2023/09/19 13:10:15;;;;;;;4.10;1.43;;;21.00;52.10;;;;;;4964708;28;20456;-58